Time;durP1;ratioP1;P1;durP2;ratioP2;P2;SDS_P1;SDS_P2;PMS_P1;PMS_P2;Temp;Humidity;BMP_temperature;BMP_pressure;BME280_temperature;BME280_humidity;BME280_pressure;Samples;Min_cycle;Max_cycle;Signal;HPM_P1;HPM_P2
2022/07/05 00:00:48;;;;;;;1.75;0.77;;;;;;;18.97;57.51;98928.84;4128558;28;20210;-55
2022/07/05 00:02:50;;;;;;;1.20;0.65;;;;;;;18.95;57.57;98931.06;4131144;28;20197;-56
2022/07/05 00:04:51;;;;;;;1.67;0.80;;;;;;;18.92;57.52;98926.13;4131843;28;20240;-56
2022/07/05 00:09:13;;;;;;;1.67;0.70;;;;;;;18.86;57.63;98924.53;4131003;28;21027;-56
2022/07/05 00:11:15;;;;;;;0.50;0.50;;;;;;;18.83;57.76;98934.25;4129427;28;20234;-56
2022/07/05 00:13:16;;;;;;;0.55;0.50;;;;;;;18.79;58.18;98929.59;4128523;28;20373;-56
2022/07/05 00:15:18;;;;;;;0.60;0.60;;;;;;;18.77;58.07;98929.06;4129161;28;20248;-56
2022/07/05 00:17:20;;;;;;;1.25;0.70;;;;;;;18.80;58.21;98922.91;4131264;28;20674;-56
2022/07/05 00:19:21;;;;;;;2.47;0.90;;;;;;;18.77;58.29;98926.28;4130690;28;20313;-56
2022/07/05 00:21:23;;;;;;;0.60;0.60;;;;;;;18.70;58.60;98926.63;4127931;28;20206;-56
2022/07/05 00:23:24;;;;;;;1.48;0.80;;;;;;;18.66;58.83;98930.28;4129845;28;20230;-56
2022/07/05 00:25:26;;;;;;;2.35;0.70;;;;;;;18.61;58.69;98924.78;4127311;28;20237;-56
2022/07/05 00:27:27;;;;;;;1.42;0.70;;;;;;;18.58;59.07;98925.38;4129546;28;20272;-56
2022/07/05 00:29:29;;;;;;;0.70;0.60;;;;;;;18.54;59.07;98930.66;4129327;28;20225;-55
2022/07/05 00:31:31;;;;;;;0.98;0.65;;;;;;;18.50;59.13;98917.66;4128679;28;20418;-56
2022/07/05 00:33:32;;;;;;;1.38;1.15;;;;;;;18.46;59.06;98922.16;4129086;28;20202;-56
2022/07/05 00:35:34;;;;;;;0.60;0.60;;;;;;;18.39;58.88;98916.13;4128608;28;20241;-56
2022/07/05 00:37:35;;;;;;;8.02;1.63;;;;;;;18.34;58.58;98918.94;4126703;28;20291;-56
2022/07/05 00:39:37;;;;;;;2.40;0.75;;;;;;;18.33;58.61;98920.84;4132231;28;20307;-56
2022/07/05 00:41:39;;;;;;;4.45;0.60;;;;;;;18.32;58.78;98926.72;4130503;28;20304;-56
2022/07/05 00:43:54;;;;;;;1.63;0.80;;;;;;;18.32;58.61;98921.16;4129702;28;20224;-56
2022/07/05 00:45:56;;;;;;;1.77;0.90;;;;;;;18.32;58.79;98924.75;4129493;28;20741;-56
2022/07/05 00:47:58;;;;;;;2.50;0.85;;;;;;;18.34;58.68;98921.69;4127493;28;20312;-56
2022/07/05 00:49:59;;;;;;;1.42;1.20;;;;;;;18.33;58.98;98922.81;4125379;28;20718;-54
2022/07/05 00:52:01;;;;;;;1.45;0.70;;;;;;;18.28;59.04;98917.28;4127904;28;20209;-56
2022/07/05 00:54:20;;;;;;;0.63;0.63;;;;;;;18.29;58.99;98927.25;4129265;28;20232;-56
2022/07/05 00:56:23;;;;;;;0.88;0.73;;;;;;;18.27;59.19;98923.94;4129452;28;20206;-55
2022/07/05 00:58:25;;;;;;;2.38;1.02;;;;;;;18.23;59.48;98920.09;4128220;28;20198;-55
2022/07/05 01:00:27;;;;;;;1.27;0.85;;;;;;;18.17;59.35;98924.84;4127691;28;20646;-54
2022/07/05 01:02:28;;;;;;;1.35;0.70;;;;;;;18.10;59.20;98929.06;4128044;28;20232;-56
2022/07/05 01:04:30;;;;;;;1.55;0.85;;;;;;;18.06;59.32;98925.22;4112493;28;20206;-55
2022/07/05 01:06:32;;;;;;;0.65;0.60;;;;;;;18.03;59.10;98928.56;4130692;28;20244;-56
2022/07/05 01:08:35;;;;;;;2.58;0.73;;;;;;;18.02;59.18;98926.91;4128369;28;20264;-56
2022/07/05 01:10:37;;;;;;;0.90;0.70;;;;;;;17.98;59.29;98931.38;4127286;28;20328;-55
2022/07/05 01:12:40;;;;;;;1.40;0.70;;;;;;;17.89;59.65;98927.53;4114366;28;20213;-55
2022/07/05 01:14:42;;;;;;;1.60;0.60;;;;;;;17.83;59.73;98928.69;4126930;28;20280;-55
2022/07/05 01:16:44;;;;;;;0.88;0.77;;;;;;;17.46;60.54;98929.16;4128498;28;20209;-55
2022/07/05 01:18:46;;;;;;;1.85;0.80;;;;;;;17.34;60.80;98936.13;4129517;28;20209;-56
2022/07/05 01:20:48;;;;;;;1.23;0.85;;;;;;;17.23;61.04;98928.97;4129324;28;20240;-55
2022/07/05 01:22:55;;;;;;;2.67;0.73;;;;;;;17.19;61.38;98931.47;4129684;28;20221;-54
2022/07/05 01:24:57;;;;;;;5.00;1.10;;;;;;;17.33;60.81;98928.94;4128888;28;20216;-55
2022/07/05 01:26:58;;;;;;;0.88;0.65;;;;;;;17.45;60.42;98926.72;4110354;28;20207;-55
2022/07/05 01:29:00;;;;;;;1.58;0.63;;;;;;;17.52;60.33;98927.22;4109840;28;20317;-54
2022/07/05 01:31:02;;;;;;;2.22;0.70;;;;;;;17.57;60.20;98932.72;4129213;28;20206;-55
2022/07/05 01:33:05;;;;;;;0.93;0.80;;;;;;;17.61;59.91;98937.41;4111043;28;20262;-54
2022/07/05 01:35:08;;;;;;;0.70;0.70;;;;;;;17.62;60.14;98925.22;4129108;28;20722;-54
2022/07/05 01:37:10;;;;;;;1.10;0.68;;;;;;;17.60;60.40;98932.16;4127061;28;20241;-55
2022/07/05 01:39:11;;;;;;;1.60;0.68;;;;;;;17.58;60.31;98934.41;4112746;28;20711;-55
2022/07/05 01:41:13;;;;;;;0.93;0.70;;;;;;;17.54;60.72;98931.38;4127767;28;20289;-55
2022/07/05 01:43:14;;;;;;;1.45;0.88;;;;;;;17.48;60.61;98932.50;4129970;28;20707;-55
2022/07/05 01:45:38;;;;;;;1.55;1.40;;;;;;;17.40;60.76;98929.50;4129133;28;20205;-56
2022/07/05 01:47:45;;;;;;;1.48;0.77;;;;;;;17.30;61.02;98930.34;4130022;28;20317;-56
2022/07/05 01:49:49;;;;;;;2.75;0.60;;;;;;;17.26;61.19;98928.41;4129203;28;20256;-56
2022/07/05 01:51:55;;;;;;;0.80;0.80;;;;;;;17.13;61.60;98929.84;4115629;28;20650;-56
2022/07/05 01:53:56;;;;;;;1.52;0.77;;;;;;;17.11;61.26;98934.03;4112471;28;20228;-55
2022/07/05 01:55:59;;;;;;;4.15;0.90;;;;;;;17.09;61.14;98938.97;4131208;28;20286;-56
2022/07/05 01:58:01;;;;;;;1.15;0.88;;;;;;;17.01;61.30;98925.75;4123965;28;20754;-55
2022/07/05 02:00:03;;;;;;;2.38;1.33;;;;;;;16.80;61.98;98937.13;4099335;28;20310;-55
2022/07/05 02:02:06;;;;;;;0.70;0.70;;;;;;;16.79;61.83;98939.06;4122276;28;20205;-56
2022/07/05 02:04:09;;;;;;;0.60;0.60;;;;;;;16.86;61.76;98949.84;4126633;28;20333;-54
2022/07/05 02:06:11;;;;;;;1.17;0.68;;;;;;;16.92;61.69;98944.03;4132441;28;20214;-55
2022/07/05 02:08:13;;;;;;;1.10;0.60;;;;;;;16.98;61.46;98932.66;4129436;28;20253;-55
2022/07/05 02:10:15;;;;;;;2.80;0.68;;;;;;;16.99;61.37;98931.53;4129939;28;20809;-54
2022/07/05 02:12:17;;;;;;;1.17;0.82;;;;;;;17.00;61.54;98935.16;4130592;28;20210;-54
2022/07/05 02:14:18;;;;;;;0.80;0.80;;;;;;;17.02;61.53;98927.38;4131119;28;20253;-54
2022/07/05 02:16:24;;;;;;;1.50;0.63;;;;;;;16.98;61.53;98937.38;4130656;28;20225;-55
2022/07/05 02:18:26;;;;;;;1.23;0.80;;;;;;;16.95;61.69;98937.13;4127925;28;20206;-55
2022/07/05 02:20:28;;;;;;;0.82;0.82;;;;;;;16.91;61.77;98936.84;4130511;28;20779;-55
2022/07/05 02:22:32;;;;;;;1.60;0.80;;;;;;;16.81;61.97;98931.31;4131668;28;20224;-55
2022/07/05 02:24:34;;;;;;;1.20;0.93;;;;;;;16.78;61.86;98931.91;4134948;28;20583;-54
2022/07/05 02:26:36;;;;;;;0.82;0.70;;;;;;;16.80;62.04;98937.13;4119768;28;20210;-54
2022/07/05 02:28:38;;;;;;;1.10;0.73;;;;;;;16.80;61.91;98939.88;4132313;28;20255;-54
2022/07/05 02:30:39;;;;;;;1.75;0.88;;;;;;;16.76;62.33;98938.81;4134102;28;20202;-54
2022/07/05 02:32:41;;;;;;;1.40;0.88;;;;;;;16.70;62.41;98928.88;4135066;28;20247;-54
2022/07/05 02:34:43;;;;;;;2.20;1.02;;;;;;;16.65;62.40;98929.72;4117386;28;20272;-54
2022/07/05 02:36:45;;;;;;;1.15;0.90;;;;;;;16.63;62.57;98934.66;4120694;28;20221;-55
2022/07/05 02:38:46;;;;;;;1.10;1.10;;;;;;;16.59;62.66;98933.59;4133571;28;20720;-54
2022/07/05 02:40:48;;;;;;;1.35;0.90;;;;;;;16.59;62.64;98939.13;4133582;28;20288;-55
2022/07/05 02:42:49;;;;;;;1.42;0.70;;;;;;;16.55;62.85;98926.13;4135403;28;20257;-54
2022/07/05 02:44:51;;;;;;;3.15;1.13;;;;;;;16.51;62.95;98931.41;4131214;28;20252;-54
2022/07/05 02:46:52;;;;;;;0.70;0.60;;;;;;;16.50;62.83;98934.44;4132191;28;20297;-55
2022/07/05 02:48:54;;;;;;;1.17;0.77;;;;;;;16.51;62.90;98933.31;4134565;28;20264;-55
2022/07/05 02:50:59;;;;;;;1.38;0.80;;;;;;;16.52;62.90;98937.72;4134530;28;20209;-55
2022/07/05 02:53:01;;;;;;;1.55;0.77;;;;;;;16.49;62.99;98936.34;4134845;28;20206;-54
2022/07/05 02:55:03;;;;;;;0.90;0.90;;;;;;;16.47;62.95;98944.09;4132867;28;20292;-54
2022/07/05 02:57:05;;;;;;;1.08;0.90;;;;;;;16.41;62.94;98947.97;4134482;28;20233;-54
2022/07/05 02:59:07;;;;;;;0.88;0.88;;;;;;;16.39;62.82;98941.06;4134181;28;20312;-54
2022/07/05 03:01:09;;;;;;;2.00;0.82;;;;;;;16.33;63.12;98942.13;4126876;28;20296;-55
2022/07/05 03:03:10;;;;;;;1.42;1.00;;;;;;;16.22;63.57;98946.00;4134245;28;20300;-54
2022/07/05 03:05:12;;;;;;;3.35;1.02;;;;;;;15.91;64.31;98947.06;4114980;28;20663;-56
2022/07/05 03:07:13;;;;;;;1.85;0.90;;;;;;;15.86;64.37;98945.16;4135105;28;20299;-55
2022/07/05 03:09:15;;;;;;;2.17;0.98;;;;;;;15.89;64.12;98944.56;4126971;28;20252;-55
2022/07/05 03:11:17;;;;;;;1.45;1.02;;;;;;;15.90;64.16;98942.66;4129938;28;20210;-54
2022/07/05 03:13:18;;;;;;;0.98;0.98;;;;;;;15.92;63.87;98944.06;4132641;28;20583;-55
2022/07/05 03:15:20;;;;;;;2.00;0.80;;;;;;;15.98;63.93;98948.47;4131905;28;20202;-56
2022/07/05 03:17:21;;;;;;;1.20;1.10;;;;;;;16.01;63.74;98952.59;4131012;28;20212;-54
2022/07/05 03:19:23;;;;;;;1.85;1.00;;;;;;;16.03;63.62;98951.22;4133071;28;20222;-55
2022/07/05 03:21:25;;;;;;;1.13;1.02;;;;;;;16.02;63.85;98954.28;4132869;28;20213;-55
2022/07/05 03:23:26;;;;;;;1.60;0.98;;;;;;;16.01;63.75;98947.91;4132335;28;20221;-55
2022/07/05 03:25:28;;;;;;;1.75;0.90;;;;;;;16.01;63.79;98955.34;4132118;28;20206;-55
2022/07/05 03:27:30;;;;;;;1.02;1.00;;;;;;;15.98;63.72;98951.25;4133335;28;20239;-55
2022/07/05 03:29:31;;;;;;;1.55;0.95;;;;;;;15.95;63.88;98960.06;4130210;28;20237;-55
2022/07/05 03:31:33;;;;;;;1.90;1.20;;;;;;;15.89;63.84;98961.13;4133766;28;20240;-54
2022/07/05 03:33:35;;;;;;;2.03;0.80;;;;;;;15.90;64.17;98951.75;4131908;28;20208;-55
2022/07/05 03:35:36;;;;;;;1.15;1.05;;;;;;;15.92;64.21;98960.63;4115396;28;20711;-55
2022/07/05 03:37:38;;;;;;;1.52;0.90;;;;;;;15.89;64.39;98961.13;4129895;28;20218;-55
2022/07/05 03:39:40;;;;;;;0.98;0.88;;;;;;;15.88;64.34;98958.66;4130248;28;20221;-55
2022/07/05 03:41:42;;;;;;;2.35;0.88;;;;;;;15.84;64.33;98963.88;4128145;28;20217;-55
2022/07/05 03:43:44;;;;;;;5.50;1.08;;;;;;;15.84;64.49;98963.88;4131132;28;20202;-55
2022/07/05 03:45:45;;;;;;;0.68;0.68;;;;;;;15.82;64.34;98966.09;4110323;28;20202;-55
2022/07/05 03:47:47;;;;;;;0.90;0.90;;;;;;;15.80;64.36;98957.28;4110028;28;20226;-56
2022/07/05 03:49:49;;;;;;;0.80;0.80;;;;;;;15.80;64.21;98962.78;4125982;28;20226;-55
2022/07/05 03:51:50;;;;;;;1.02;1.00;;;;;;;15.82;64.30;98959.75;4129035;28;20210;-56
2022/07/05 03:53:52;;;;;;;1.00;0.88;;;;;;;15.78;64.35;98959.47;4111621;28;20203;-56
2022/07/05 03:55:54;;;;;;;1.95;1.00;;;;;;;15.79;64.57;98972.19;4129934;28;20259;-55
2022/07/05 03:57:55;;;;;;;6.75;0.93;;;;;;;15.76;64.55;98971.88;4131273;28;20202;-55
2022/07/05 03:59:57;;;;;;;1.20;1.00;;;;;;;15.66;64.79;98972.69;4126605;28;20825;-57
2022/07/05 04:01:59;;;;;;;3.33;0.98;;;;;;;15.65;64.81;98976.56;4128644;28;20206;-55
2022/07/05 04:04:01;;;;;;;2.45;1.10;;;;;;;15.62;65.07;98977.09;4130175;28;20205;-54
2022/07/05 04:06:03;;;;;;;1.30;0.90;;;;;;;15.58;65.52;98980.66;4131930;28;20212;-56
2022/07/05 04:08:04;;;;;;;2.00;1.27;;;;;;;15.56;65.43;98986.44;4130021;28;20206;-54
2022/07/05 04:10:06;;;;;;;7.22;1.17;;;;;;;15.55;65.49;98986.72;4131893;28;20683;-55
2022/07/05 04:12:08;;;;;;;3.03;1.20;;;;;;;15.47;65.44;99003.78;4132443;28;20205;-55
2022/07/05 04:14:10;;;;;;;5.18;1.15;;;;;;;15.47;65.43;98999.09;4126258;28;20714;-55
2022/07/05 04:16:12;;;;;;;0.85;0.80;;;;;;;15.48;65.49;98994.41;4131225;28;20225;-56
2022/07/05 04:18:14;;;;;;;1.90;0.90;;;;;;;15.50;65.28;98990.28;4129126;28;20213;-55
2022/07/05 04:20:16;;;;;;;2.70;1.67;;;;;;;15.54;65.36;99002.44;4129954;28;20229;-54
2022/07/05 04:22:17;;;;;;;2.30;1.23;;;;;;;15.57;65.45;98996.38;4133085;28;20206;-54
2022/07/05 04:24:19;;;;;;;2.72;0.88;;;;;;;15.61;65.46;98996.66;4133652;28;20694;-55
2022/07/05 04:26:21;;;;;;;2.13;1.00;;;;;;;15.66;65.52;98992.00;4131198;28;20292;-56
2022/07/05 04:28:23;;;;;;;1.48;1.13;;;;;;;15.72;65.58;98992.84;4130760;28;20297;-55
2022/07/05 04:30:25;;;;;;;1.85;1.27;;;;;;;15.57;65.77;99001.06;4131256;28;20229;-56
2022/07/05 04:32:27;;;;;;;1.23;1.13;;;;;;;15.53;65.74;98989.75;4098607;28;20296;-54
2022/07/05 04:34:28;;;;;;;1.27;1.17;;;;;;;15.51;65.65;98997.44;4114099;28;20298;-55
2022/07/05 04:36:30;;;;;;;1.20;1.10;;;;;;;15.53;65.65;98995.28;4126234;28;20237;-55
2022/07/05 04:38:32;;;;;;;1.33;0.90;;;;;;;15.58;65.49;98991.69;4123981;28;20234;-55
2022/07/05 04:40:33;;;;;;;1.20;1.02;;;;;;;15.63;65.44;98995.28;4128341;28;20318;-55
2022/07/05 04:42:35;;;;;;;1.25;0.82;;;;;;;15.69;65.53;98996.97;4122755;28;20210;-54
2022/07/05 04:44:36;;;;;;;2.00;1.10;;;;;;;15.74;65.49;98998.91;4127801;28;20576;-55
2022/07/05 04:46:38;;;;;;;2.90;1.25;;;;;;;15.78;65.41;98998.13;4126872;28;20296;-55
2022/07/05 04:48:40;;;;;;;0.90;0.90;;;;;;;15.82;65.23;99004.75;4121356;28;20287;-54
2022/07/05 04:50:41;;;;;;;1.10;1.00;;;;;;;15.84;65.27;99005.28;4124304;28;20300;-54
2022/07/05 04:52:43;;;;;;;2.45;1.00;;;;;;;15.77;65.69;98999.19;4108540;28;20289;-55
2022/07/05 04:54:44;;;;;;;1.38;1.23;;;;;;;15.76;65.73;99000.31;4124616;28;20210;-55
2022/07/05 04:56:46;;;;;;;1.88;1.02;;;;;;;15.74;65.57;98997.00;4126514;28;20431;-55
2022/07/05 04:58:48;;;;;;;1.80;1.10;;;;;;;15.78;65.49;98998.13;4126618;28;20289;-54
2022/07/05 05:00:49;;;;;;;2.45;1.02;;;;;;;15.77;65.85;99007.47;4126515;28;20210;-54
2022/07/05 05:02:51;;;;;;;2.13;1.30;;;;;;;15.82;65.95;99001.97;4125039;28;20210;-55
2022/07/05 05:04:52;;;;;;;1.45;1.13;;;;;;;15.87;66.12;99007.53;4110397;28;20589;-55
2022/07/05 05:06:54;;;;;;;2.60;1.13;;;;;;;15.86;66.00;99000.34;4125879;28;20217;-55
2022/07/05 05:08:55;;;;;;;3.08;1.30;;;;;;;15.91;66.09;99011.38;4124976;28;20845;-55
2022/07/05 05:10:57;;;;;;;3.65;1.55;;;;;;;15.98;65.82;99014.72;4123322;28;20249;-54
2022/07/05 05:12:59;;;;;;;5.38;1.67;;;;;;;16.04;65.86;99002.56;4110658;28;20206;-55
2022/07/05 05:15:00;;;;;;;1.40;1.30;;;;;;;16.05;66.17;99007.03;4120932;28;20308;-55
2022/07/05 05:17:02;;;;;;;1.25;1.15;;;;;;;16.13;65.99;99006.47;4121905;28;20211;-56
2022/07/05 05:19:04;;;;;;;1.40;1.30;;;;;;;16.19;65.57;99005.38;4089969;28;20214;-54
2022/07/05 05:21:05;;;;;;;2.03;1.17;;;;;;;16.22;65.69;99002.06;4124296;28;20633;-56
2022/07/05 05:23:07;;;;;;;1.80;1.08;;;;;;;16.32;65.54;99009.53;4092670;28;20631;-56
2022/07/05 05:25:09;;;;;;;7.75;1.40;;;;;;;16.45;65.18;99015.38;4100250;28;20316;-55
2022/07/05 05:27:11;;;;;;;2.35;1.25;;;;;;;16.48;65.16;99009.28;4126671;28;20849;-54
2022/07/05 05:29:13;;;;;;;1.60;0.98;;;;;;;16.56;64.90;99011.50;4122902;28;20229;-55
2022/07/05 05:31:14;;;;;;;2.05;1.15;;;;;;;16.65;64.66;99020.91;4121757;28;20992;-56
2022/07/05 05:33:16;;;;;;;1.85;1.27;;;;;;;16.74;64.59;99024.78;4122475;28;20210;-56
2022/07/05 05:35:20;;;;;;;1.40;1.13;;;;;;;16.86;64.46;99021.72;4126702;28;20245;-55
2022/07/05 05:37:22;;;;;;;2.70;1.10;;;;;;;16.90;64.69;99012.56;4124538;28;20659;-55
2022/07/05 05:39:23;;;;;;;1.58;1.10;;;;;;;16.90;64.96;99015.34;4126549;28;20725;-54
2022/07/05 05:41:25;;;;;;;1.75;1.33;;;;;;;17.04;65.00;99021.94;4125514;28;20638;-56
2022/07/05 05:43:27;;;;;;;2.13;1.13;;;;;;;17.03;65.23;99017.53;4120573;28;20204;-55
2022/07/05 05:45:29;;;;;;;2.22;1.25;;;;;;;17.08;65.42;99026.66;4124455;28;20218;-55
2022/07/05 05:47:31;;;;;;;1.60;1.35;;;;;;;17.33;66.06;99028.53;4108724;28;20213;-56
2022/07/05 05:49:32;;;;;;;1.95;1.20;;;;;;;17.62;65.73;99035.09;4127726;28;20699;-55
2022/07/05 05:51:34;;;;;;;9.15;1.23;;;;;;;17.91;65.22;99033.34;4127206;28;20233;-56
2022/07/05 05:53:36;;;;;;;5.95;1.35;;;;;;;18.08;64.44;99031.00;4129451;28;20686;-55
2022/07/05 05:55:37;;;;;;;1.02;0.90;;;;;;;18.29;63.83;99046.41;4112274;28;20214;-55
2022/07/05 05:57:39;;;;;;;3.47;1.58;;;;;;;18.46;63.78;99044.09;4128297;28;20292;-54
2022/07/05 05:59:41;;;;;;;1.27;1.00;;;;;;;18.58;63.26;99036.25;4123831;28;20798;-56
2022/07/05 06:01:43;;;;;;;1.95;0.80;;;;;;;18.75;62.48;99048.59;4129034;28;20295;-55
2022/07/05 06:03:44;;;;;;;15.60;1.33;;;;;;;18.89;62.56;99032.94;4127391;28;20198;-55
2022/07/05 06:05:46;;;;;;;6.88;1.48;;;;;;;19.02;62.50;99042.53;4131324;28;20206;-56
2022/07/05 06:07:54;;;;;;;4.43;0.95;;;;;;;19.13;62.08;99044.09;4126385;28;20216;-56
2022/07/05 06:09:56;;;;;;;2.83;1.10;;;;;;;19.33;61.69;99046.69;4126793;28;20237;-56
2022/07/05 06:11:57;;;;;;;2.88;1.35;;;;;;;19.34;61.14;99045.56;4128056;28;20209;-55
2022/07/05 06:13:59;;;;;;;3.17;1.40;;;;;;;19.49;61.54;99053.72;4126036;28;20252;-54
2022/07/05 06:16:00;;;;;;;4.70;1.00;;;;;;;19.43;59.89;99049.34;4120545;28;20261;-56
2022/07/05 06:18:02;;;;;;;4.35;1.50;;;;;;;19.50;59.88;99060.94;4126079;28;20247;-56
2022/07/05 06:20:09;;;;;;;3.97;1.20;;;;;;;19.25;59.29;99058.44;4109207;28;20309;-56
2022/07/05 06:22:10;;;;;;;5.75;1.30;;;;;;;19.35;59.70;99058.31;4131094;28;20555;-56
2022/07/05 06:24:12;;;;;;;2.55;1.08;;;;;;;19.46;59.18;99054.31;4131167;28;20202;-57
2022/07/05 06:26:13;;;;;;;13.38;1.65;;;;;;;19.62;59.41;99058.56;4134263;28;20300;-56
2022/07/05 06:28:16;;;;;;;6.93;1.27;;;;;;;19.79;58.80;99058.94;4132165;28;20218;-56
2022/07/05 06:30:19;;;;;;;2.63;0.98;;;;;;;19.97;58.35;99060.94;4134184;28;20225;-56
2022/07/05 06:32:21;;;;;;;8.15;1.48;;;;;;;20.06;58.26;99059.19;4130605;28;20215;-55
2022/07/05 06:34:23;;;;;;;1.92;1.30;;;;;;;19.85;57.23;99057.75;4130055;28;20289;-56
2022/07/05 06:36:24;;;;;;;1.85;1.10;;;;;;;20.27;55.94;99061.41;4129740;28;20293;-56
2022/07/05 06:38:26;;;;;;;4.45;1.42;;;;;;;20.08;56.34;99056.91;4131350;28;20208;-56
2022/07/05 06:40:30;;;;;;;3.47;1.60;;;;;;;20.01;57.09;99053.66;4129980;28;20230;-56
2022/07/05 06:42:32;;;;;;;3.92;1.75;;;;;;;20.21;57.01;99058.97;4106661;28;20328;-56
2022/07/05 06:44:33;;;;;;;2.78;1.23;;;;;;;20.47;56.20;99060.25;4116466;28;20215;-57
2022/07/05 06:46:37;;;;;;;2.03;1.00;;;;;;;20.67;56.37;99054.38;4131046;28;20291;-56
2022/07/05 06:48:39;;;;;;;3.00;1.20;;;;;;;20.87;55.77;99062.41;4127041;28;20206;-56
2022/07/05 06:50:42;;;;;;;2.00;1.40;;;;;;;21.03;54.89;99061.88;4128341;28;20260;-56
2022/07/05 06:52:44;;;;;;;1.77;1.65;;;;;;;21.02;54.03;99064.97;4129571;28;20205;-55
2022/07/05 06:54:45;;;;;;;4.45;2.03;;;;;;;20.89;53.33;99062.94;4131526;28;20202;-56
2022/07/05 06:56:48;;;;;;;1.58;1.17;;;;;;;21.04;54.25;99060.75;4132076;28;20212;-56
2022/07/05 06:59:10;;;;;;;2.75;1.13;;;;;;;21.20;54.53;99058.53;4130852;28;20230;-56
2022/07/05 07:01:31;;;;;;;2.28;1.55;;;;;;;21.58;55.10;99055.28;4132866;28;20202;-57
2022/07/05 07:03:33;;;;;;;1.35;1.25;;;;;;;21.76;54.05;99059.13;4130674;28;20252;-56
2022/07/05 07:05:55;;;;;;;7.18;1.13;;;;;;;21.79;52.63;99061.34;4132502;28;20567;-56
2022/07/05 07:10:32;;;;;;;2.17;1.45;;;;;;;22.05;53.36;99070.81;4133380;28;20324;-56
2022/07/05 07:12:34;;;;;;;2.85;1.10;;;;;;;21.95;52.39;99060.72;4131637;28;20236;-56
2022/07/05 07:14:36;;;;;;;1.77;1.00;;;;;;;21.85;52.18;99071.25;4131384;28;20287;-55
2022/07/05 07:16:37;;;;;;;2.03;0.90;;;;;;;22.04;51.72;99064.41;4132164;28;20289;-55
2022/07/05 07:18:39;;;;;;;4.20;1.20;;;;;;;21.90;52.49;99068.34;4114156;28;20210;-56
2022/07/05 07:21:01;;;;;;;6.72;0.90;;;;;;;22.16;52.35;99066.66;4135159;28;20215;-56
2022/07/05 07:23:02;;;;;;;1.88;1.40;;;;;;;22.39;52.56;99068.41;4136600;28;20201;-56
2022/07/05 07:25:06;;;;;;;3.72;1.38;;;;;;;22.29;51.78;99066.66;4130525;28;20208;-55
2022/07/05 07:27:08;;;;;;;2.33;0.90;;;;;;;22.56;51.87;99066.63;4131719;28;20260;-56
2022/07/05 07:29:09;;;;;;;2.85;0.90;;;;;;;22.83;52.70;99074.91;4132306;28;20348;-56
2022/07/05 07:31:11;;;;;;;2.47;1.10;;;;;;;22.91;51.02;99073.34;4133089;28;20229;-57
2022/07/05 07:33:13;;;;;;;9.18;0.90;;;;;;;22.71;49.97;99069.06;4135255;28;20201;-56
2022/07/05 07:35:34;;;;;;;3.75;1.40;;;;;;;22.57;49.61;99078.63;4137286;28;21067;-55
2022/07/05 07:37:36;;;;;;;5.40;1.02;;;;;;;22.74;51.93;99078.75;4132224;28;20255;-56
2022/07/05 07:39:40;;;;;;;2.45;1.00;;;;;;;22.79;50.46;99070.28;4132099;28;20252;-57
2022/07/05 07:41:43;;;;;;;23.50;1.48;;;;;;;22.92;50.06;99084.16;4133203;28;20205;-58
2022/07/05 07:43:48;;;;;;;1.63;0.80;;;;;;;23.03;48.86;99076.38;4126284;28;20228;-56
2022/07/05 07:45:49;;;;;;;3.17;1.10;;;;;;;23.28;50.33;99078.56;4103862;28;20302;-55
2022/07/05 07:47:51;;;;;;;1.73;0.90;;;;;;;23.52;49.05;99079.03;4129173;28;20304;-56
2022/07/05 07:49:52;;;;;;;2.25;1.00;;;;;;;23.71;50.55;99088.81;4129768;28;20249;-56
2022/07/05 07:51:54;;;;;;;4.63;1.15;;;;;;;23.94;49.49;99082.06;4128311;28;20304;-57
2022/07/05 07:53:56;;;;;;;11.75;1.10;;;;;;;23.79;47.61;99086.06;4112860;28;20209;-56
2022/07/05 07:56:14;;;;;;;4.70;1.13;;;;;;;23.80;46.67;99084.94;4112904;28;20304;-57
2022/07/05 07:58:16;;;;;;;5.68;1.70;;;;;;;23.80;47.04;99087.72;4131476;28;20923;-56
2022/07/05 08:00:17;;;;;;;3.42;1.00;;;;;;;23.88;46.93;99083.34;4129832;28;20277;-56
2022/07/05 08:02:21;;;;;;;4.10;1.10;;;;;;;23.99;46.90;99081.94;4129268;28;20226;-56
2022/07/05 08:04:22;;;;;;;5.18;0.95;;;;;;;23.73;45.86;99078.97;4110201;28;20218;-57
2022/07/05 08:06:24;;;;;;;2.03;1.05;;;;;;;23.69;47.33;99090.31;4130386;28;21140;-60
2022/07/05 08:08:25;;;;;;;1.98;1.00;;;;;;;24.14;47.87;99082.28;4128353;28;20865;-57
2022/07/05 08:10:27;;;;;;;9.85;0.93;;;;;;;24.25;45.92;99083.66;4129862;28;20239;-57
2022/07/05 08:12:29;;;;;;;4.43;1.33;;;;;;;24.33;45.81;99085.63;4131832;28;20240;-57
2022/07/05 08:14:30;;;;;;;2.20;1.02;;;;;;;24.13;44.23;99086.25;4132094;28;20209;-58
2022/07/05 08:16:32;;;;;;;1.73;0.88;;;;;;;24.44;48.82;99081.38;4129731;28;20247;-63
2022/07/05 08:23:15;;;;;;;3.47;0.70;;;;;;;24.77;45.00;99073.38;4127891;28;20210;-56
2022/07/05 08:25:17;;;;;;;2.17;0.70;;;;;;;25.15;44.62;99069.59;4127236;28;20317;-57
2022/07/05 08:27:18;;;;;;;1.38;0.90;;;;;;;25.51;43.65;99066.41;4126557;28;20216;-57
2022/07/05 08:29:20;;;;;;;1.10;0.70;;;;;;;25.59;42.88;99074.78;4126927;28;20272;-57
2022/07/05 08:31:25;;;;;;;1.95;0.85;;;;;;;25.31;42.12;99064.31;4130142;28;20235;-55
2022/07/05 08:33:27;;;;;;;2.42;0.70;;;;;;;25.69;43.97;99077.25;4106351;28;20237;-57
2022/07/05 08:35:28;;;;;;;0.88;0.60;;;;;;;25.54;42.24;99071.34;4122858;28;20589;-56
2022/07/05 08:37:30;;;;;;;5.25;0.70;;;;;;;25.56;43.55;99069.88;4128422;28;20687;-56
2022/07/05 08:39:31;;;;;;;3.53;0.88;;;;;;;26.00;42.47;99063.78;4129110;28;20251;-56
2022/07/05 08:41:38;;;;;;;1.25;0.90;;;;;;;25.71;41.32;99060.91;4127537;28;20237;-57
2022/07/05 08:43:41;;;;;;;1.85;0.80;;;;;;;25.39;41.56;99063.50;4133130;28;20228;-56
2022/07/05 08:45:43;;;;;;;4.57;0.77;;;;;;;25.44;42.53;99064.13;4130847;28;20244;-56
2022/07/05 08:47:46;;;;;;;6.53;0.88;;;;;;;25.92;43.51;99067.44;4134191;28;20301;-58
2022/07/05 08:49:49;;;;;;;1.75;0.68;;;;;;;26.23;42.74;99070.78;4130557;28;20232;-57
2022/07/05 08:51:53;;;;;;;1.45;0.80;;;;;;;26.14;42.02;99061.56;4113328;28;20206;-57
2022/07/05 08:53:57;;;;;;;1.15;0.68;;;;;;;26.45;42.40;99053.63;4130138;28;20256;-57
2022/07/05 08:55:59;;;;;;;0.50;0.50;;;;;;;26.77;42.41;99052.91;4130054;28;20301;-57
2022/07/05 09:00:04;;;;;;;3.03;0.88;;;;;;;26.63;39.10;99058.00;4121441;28;20238;-55
2022/07/05 09:02:11;;;;;;;1.85;0.50;;;;;;;26.18;40.79;99062.53;4104939;28;20294;-55
2022/07/05 09:04:13;;;;;;;2.42;0.60;;;;;;;26.05;41.22;99054.38;4119193;28;20218;-55
2022/07/05 09:06:18;;;;;;;2.65;0.70;;;;;;;26.30;40.81;99062.63;4103860;28;20879;-55
2022/07/05 09:08:22;;;;;;;1.00;0.60;;;;;;;26.39;40.88;99052.16;4122287;28;20201;-54
2022/07/05 09:10:29;;;;;;;5.95;0.75;;;;;;;26.58;38.37;99041.34;4119261;28;20229;-56
2022/07/05 09:12:31;;;;;;;3.08;0.80;;;;;;;27.06;40.36;99055.63;4120072;28;20205;-54
2022/07/05 09:14:33;;;;;;;1.67;0.52;;;;;;;27.05;39.06;99051.19;4104592;28;20254;-54
2022/07/05 09:16:35;;;;;;;3.53;0.60;;;;;;;26.86;37.63;99047.25;4102217;28;20679;-56
2022/07/05 09:18:44;;;;;;;1.25;0.70;;;;;;;26.75;38.75;99046.84;4089919;28;20242;-54
2022/07/05 09:20:46;;;;;;;1.80;0.60;;;;;;;27.37;41.34;99052.38;4121179;28;20587;-53
2022/07/05 09:22:54;;;;;;;2.65;0.50;;;;;;;26.47;37.98;99051.28;4104054;28;20236;-55
2022/07/05 09:24:56;;;;;;;1.17;0.98;;;;;;;26.46;40.94;99060.88;4111011;28;20210;-55
2022/07/05 09:27:03;;;;;;;3.05;0.60;;;;;;;26.92;40.86;99051.50;4095033;28;20235;-54
2022/07/05 09:29:09;;;;;;;2.58;0.52;;;;;;;27.31;39.19;99060.22;4109340;28;20298;-53
2022/07/05 09:31:32;;;;;;;1.42;0.65;;;;;;;27.32;38.73;99055.44;4109329;28;20233;-54
2022/07/05 09:33:49;;;;;;;2.20;0.85;;;;;;;27.35;38.37;99044.31;4108271;28;20214;-55
2022/07/05 09:35:57;;;;;;;1.60;0.70;;;;;;;27.41;38.57;99051.38;4111022;28;20257;-54
2022/07/05 09:38:03;;;;;;;1.00;0.60;;;;;;;27.76;39.06;99049.84;4107693;28;20233;-54
2022/07/05 09:40:05;;;;;;;1.05;0.60;;;;;;;27.57;38.86;99052.34;4122572;28;20234;-55
2022/07/05 09:42:22;;;;;;;5.60;0.60;;;;;;;27.54;38.42;99052.22;4110180;28;21036;-55
2022/07/05 09:44:25;;;;;;;2.08;0.60;;;;;;;27.24;38.55;99053.50;4100717;28;20730;-55
2022/07/05 09:46:30;;;;;;;2.60;0.80;;;;;;;26.82;40.19;99054.69;4103750;28;20214;-55
2022/07/05 09:48:33;;;;;;;2.35;0.60;;;;;;;26.41;39.41;99055.47;4103560;28;20228;-56
2022/07/05 09:50:45;;;;;;;2.72;0.60;;;;;;;26.11;40.80;99065.06;4104471;28;20253;-55